Time;durP1;ratioP1;P1;durP2;ratioP2;P2;SDS_P1;SDS_P2;PMS_P1;PMS_P2;Temp;Humidity;BMP_temperature;BMP_pressure;BME280_temperature;BME280_humidity;BME280_pressure;Samples;Min_cycle;Max_cycle;Signal;HPM_P1;HPM_P2
2022/05/28 00:00:18;;;;;;;0.70;0.47;;;13.40;99.90;;;;;;5096161;28;20448;-86
2022/05/28 00:02:45;;;;;;;0.50;0.50;;;13.30;99.90;;;;;;5095943;28;20486;-85
2022/05/28 00:05:12;;;;;;;0.80;0.50;;;13.30;99.90;;;;;;5096415;28;20459;-85
2022/05/28 00:07:39;;;;;;;0.50;0.50;;;13.20;99.90;;;;;;5096150;28;20436;-84
2022/05/28 00:10:07;;;;;;;2.30;0.53;;;13.20;99.90;;;;;;5096154;28;20451;-84
2022/05/28 00:12:35;;;;;;;0.43;0.40;;;13.10;99.90;;;;;;5095303;28;20495;-84
2022/05/28 00:15:02;;;;;;;0.37;0.37;;;12.90;99.90;;;;;;5095891;28;20455;-84
2022/05/28 00:17:29;;;;;;;0.90;0.67;;;12.80;99.90;;;;;;5095419;28;21032;-84
2022/05/28 00:19:56;;;;;;;0.70;0.60;;;12.80;99.90;;;;;;5095915;28;20448;-85
2022/05/28 00:22:22;;;;;;;0.40;0.40;;;12.70;99.90;;;;;;5095758;28;20464;-85
2022/05/28 00:24:49;;;;;;;0.70;0.50;;;12.50;99.90;;;;;;5095443;28;20947;-84
2022/05/28 00:27:16;;;;;;;0.73;0.60;;;12.40;99.90;;;;;;5095751;28;20448;-85
2022/05/28 00:29:44;;;;;;;0.50;0.40;;;12.30;99.90;;;;;;5095921;28;20448;-84
2022/05/28 00:32:11;;;;;;;0.83;0.60;;;12.30;99.90;;;;;;5095139;28;20486;-85
2022/05/28 00:34:40;;;;;;;0.70;0.70;;;12.20;99.90;;;;;;5095305;28;20444;-84
2022/05/28 00:37:07;;;;;;;0.90;0.63;;;12.20;99.90;;;;;;5095472;28;20463;-85
2022/05/28 00:39:34;;;;;;;0.30;0.30;;;12.10;99.90;;;;;;5095486;28;20459;-84
2022/05/28 00:42:01;;;;;;;0.47;0.47;;;12.00;99.90;;;;;;5094887;28;20484;-84
2022/05/28 00:44:28;;;;;;;0.60;0.60;;;12.00;99.90;;;;;;5095444;28;20510;-85
2022/05/28 00:46:59;;;;;;;1.27;0.83;;;12.00;99.90;;;;;;5095416;28;20454;-85
2022/05/28 00:49:28;;;;;;;0.73;0.40;;;12.00;99.90;;;;;;5095128;28;20920;-85
2022/05/28 00:51:59;;;;;;;0.60;0.50;;;11.90;99.90;;;;;;5095097;28;20500;-85
2022/05/28 00:54:26;;;;;;;0.60;0.60;;;11.90;99.90;;;;;;5095220;28;20432;-84
2022/05/28 00:56:53;;;;;;;0.50;0.50;;;11.90;99.90;;;;;;5095120;28;20447;-85
2022/05/28 00:59:20;;;;;;;0.60;0.60;;;11.90;99.90;;;;;;5094986;28;20487;-85
2022/05/28 01:01:47;;;;;;;0.50;0.50;;;11.80;99.90;;;;;;5094616;28;20475;-85
2022/05/28 01:04:24;;;;;;;0.40;0.30;;;11.80;99.90;;;;;;5094976;28;20459;-85
2022/05/28 01:06:59;;;;;;;1.00;0.70;;;11.80;99.90;;;;;;5094940;28;20451;-85
2022/05/28 01:09:32;;;;;;;0.40;0.40;;;11.80;99.90;;;;;;5094674;28;20934;-85
2022/05/28 01:12:07;;;;;;;0.40;0.40;;;11.70;99.90;;;;;;5095346;28;20472;-85
2022/05/28 01:14:44;;;;;;;0.50;0.50;;;11.70;99.90;;;;;;5094845;28;20419;-85
2022/05/28 01:17:14;;;;;;;0.50;0.50;;;11.70;99.90;;;;;;5094568;28;20412;-85
2022/05/28 01:19:53;;;;;;;0.40;0.40;;;11.70;99.90;;;;;;5095030;28;20791;-85
2022/05/28 01:22:28;;;;;;;0.93;0.80;;;11.60;99.90;;;;;;5093960;28;20455;-85
2022/05/28 01:25:01;;;;;;;0.53;0.40;;;11.60;99.90;;;;;;5094554;28;20436;-85
2022/05/28 01:27:35;;;;;;;0.40;0.30;;;11.70;99.90;;;;;;5094174;28;20448;-85
2022/05/28 01:30:07;;;;;;;1.00;0.50;;;11.60;99.90;;;;;;5094603;28;20412;-85
2022/05/28 01:32:35;;;;;;;0.50;0.43;;;11.60;99.90;;;;;;5094613;28;20452;-84
2022/05/28 01:35:06;;;;;;;1.13;0.30;;;11.60;99.90;;;;;;5094522;28;20455;-85
2022/05/28 01:37:35;;;;;;;0.73;0.60;;;11.60;99.90;;;;;;5094175;28;20477;-84
2022/05/28 01:40:05;;;;;;;1.57;1.10;;;11.60;99.90;;;;;;5094240;28;20476;-85
2022/05/28 01:42:37;;;;;;;0.40;0.40;;;11.60;99.90;;;;;;5099458;28;20463;-84
2022/05/28 01:45:05;;;;;;;8.30;0.73;;;11.50;99.90;;;;;;5102222;28;20428;-84
2022/05/28 01:47:34;;;;;;;0.40;0.40;;;11.40;99.90;;;;;;5103009;28;20470;-84
2022/05/28 01:50:02;;;;;;;0.57;0.40;;;11.40;99.90;;;;;;5098771;28;20440;-85
2022/05/28 01:52:31;;;;;;;2.00;0.70;;;11.30;99.90;;;;;;5093786;28;20503;-85
2022/05/28 01:54:59;;;;;;;0.47;0.40;;;11.30;99.90;;;;;;5094111;28;20466;-85
2022/05/28 01:57:26;;;;;;;0.40;0.40;;;11.30;99.90;;;;;;5093926;28;20444;-85
2022/05/28 01:59:55;;;;;;;0.80;0.60;;;11.20;99.90;;;;;;5094551;28;20854;-85
2022/05/28 02:02:21;;;;;;;1.07;0.50;;;11.20;99.90;;;;;;5093962;28;20467;-85
2022/05/28 02:04:49;;;;;;;0.40;0.40;;;11.30;99.90;;;;;;5093764;28;20448;-84
2022/05/28 02:07:17;;;;;;;0.50;0.40;;;11.20;99.90;;;;;;5093862;28;20451;-85
2022/05/28 02:09:47;;;;;;;0.50;0.50;;;11.20;99.90;;;;;;5093759;28;20440;-85
2022/05/28 02:12:23;;;;;;;0.30;0.30;;;11.20;99.90;;;;;;5093584;28;20463;-85
2022/05/28 02:15:15;;;;;;;0.80;0.40;;;11.20;99.90;;;;;;5093370;28;20911;-85
2022/05/28 02:17:49;;;;;;;0.30;0.30;;;11.30;99.90;;;;;;5093427;28;20951;-85
2022/05/28 02:20:24;;;;;;;0.83;0.50;;;11.20;99.90;;;;;;5093840;28;20777;-85
2022/05/28 02:22:56;;;;;;;0.40;0.30;;;11.20;99.90;;;;;;5093654;28;20493;-85
2022/05/28 02:25:28;;;;;;;0.60;0.40;;;11.20;99.90;;;;;;5093711;28;20439;-85
2022/05/28 02:27:56;;;;;;;0.40;0.40;;;11.30;99.90;;;;;;5093602;28;20433;-85
2022/05/28 02:30:24;;;;;;;0.40;0.30;;;11.20;99.90;;;;;;5093574;28;20815;-85
2022/05/28 02:33:00;;;;;;;1.27;0.60;;;11.10;99.90;;;;;;5093392;28;20474;-85
2022/05/28 02:35:26;;;;;;;1.47;0.87;;;11.10;99.90;;;;;;5093395;28;20457;-85
2022/05/28 02:37:53;;;;;;;0.40;0.40;;;11.10;99.90;;;;;;5093360;28;20483;-85
2022/05/28 02:40:20;;;;;;;0.90;0.33;;;11.00;99.90;;;;;;5093249;28;20491;-85
2022/05/28 02:42:47;;;;;;;0.40;0.30;;;11.00;99.90;;;;;;5093419;28;20479;-85
2022/05/28 02:45:14;;;;;;;0.90;0.60;;;11.00;99.90;;;;;;5093141;28;20448;-85
2022/05/28 02:47:44;;;;;;;0.70;0.40;;;11.00;99.90;;;;;;5093463;28;20467;-85
2022/05/28 02:50:11;;;;;;;0.30;0.30;;;11.00;99.90;;;;;;5093393;28;20487;-85
2022/05/28 02:52:38;;;;;;;1.30;1.20;;;11.00;99.90;;;;;;5093259;28;20475;-85
2022/05/28 02:55:06;;;;;;;0.30;0.30;;;11.00;99.90;;;;;;5093013;28;20448;-85
2022/05/28 02:57:33;;;;;;;0.40;0.30;;;11.00;99.90;;;;;;5093312;28;20447;-85
2022/05/28 03:00:00;;;;;;;0.30;0.30;;;11.00;99.90;;;;;;5092909;28;20525;-85
2022/05/28 03:02:28;;;;;;;0.30;0.30;;;11.00;99.90;;;;;;5092876;28;20472;-85
2022/05/28 03:04:56;;;;;;;0.40;0.40;;;11.00;99.90;;;;;;5092989;28;20919;-85
2022/05/28 03:07:23;;;;;;;0.40;0.40;;;11.00;99.90;;;;;;5093280;28;20447;-85
2022/05/28 03:09:50;;;;;;;0.30;0.30;;;10.90;99.90;;;;;;5093159;28;20447;-85
2022/05/28 03:12:17;;;;;;;0.40;0.30;;;10.90;99.90;;;;;;5093066;28;20514;-85
2022/05/28 03:14:44;;;;;;;0.30;0.30;;;10.90;99.90;;;;;;5093173;28;20448;-85
2022/05/28 03:17:10;;;;;;;0.30;0.30;;;10.90;99.90;;;;;;5092878;28;20962;-84
2022/05/28 03:19:37;;;;;;;3.30;0.50;;;10.80;99.90;;;;;;5092986;28;20482;-85
2022/05/28 03:22:05;;;;;;;1.50;0.50;;;10.80;99.90;;;;;;5092754;28;20468;-84
2022/05/28 03:24:32;;;;;;;0.70;0.40;;;10.70;99.90;;;;;;5093043;28;20452;-85
2022/05/28 03:26:59;;;;;;;0.37;0.37;;;10.70;99.90;;;;;;5092805;28;20935;-84
2022/05/28 03:29:26;;;;;;;1.20;0.80;;;10.60;99.90;;;;;;5093031;28;20447;-85
2022/05/28 03:31:53;;;;;;;0.97;0.97;;;10.60;99.90;;;;;;5092539;28;20458;-85
2022/05/28 03:34:20;;;;;;;0.33;0.33;;;10.60;99.90;;;;;;5093034;28;20451;-85
2022/05/28 03:36:46;;;;;;;0.40;0.40;;;10.50;99.90;;;;;;5092984;28;20444;-85
2022/05/28 03:39:15;;;;;;;0.30;0.30;;;10.50;99.90;;;;;;5092896;28;20490;-85
2022/05/28 03:41:41;;;;;;;0.40;0.30;;;10.60;99.90;;;;;;5092427;28;20495;-85
2022/05/28 03:44:11;;;;;;;0.60;0.30;;;10.60;99.90;;;;;;5093033;28;20450;-85
2022/05/28 03:46:39;;;;;;;0.90;0.90;;;10.60;99.90;;;;;;5094407;28;20799;-85
2022/05/28 03:49:08;;;;;;;1.90;0.40;;;10.60;99.90;;;;;;5096516;28;20487;-85
2022/05/28 03:51:35;;;;;;;0.40;0.40;;;10.60;99.90;;;;;;5096298;28;20943;-85
2022/05/28 03:54:02;;;;;;;0.40;0.40;;;10.60;99.90;;;;;;5096692;28;20444;-85
2022/05/28 03:56:34;;;;;;;1.63;1.53;;;10.60;99.90;;;;;;5096582;28;20497;-85
2022/05/28 03:59:02;;;;;;;0.40;0.40;;;10.60;99.90;;;;;;5096427;28;20448;-85
2022/05/28 04:01:28;;;;;;;0.30;0.30;;;10.60;99.90;;;;;;5096312;28;20819;-86
2022/05/28 04:03:55;;;;;;;0.40;0.30;;;10.60;99.90;;;;;;5096437;28;20455;-85
2022/05/28 04:06:23;;;;;;;0.40;0.40;;;10.60;99.90;;;;;;5096290;28;20451;-85
2022/05/28 04:08:49;;;;;;;0.60;0.60;;;10.60;99.90;;;;;;5096188;28;20831;-85
2022/05/28 04:11:17;;;;;;;1.17;0.40;;;10.60;99.90;;;;;;5096922;28;20443;-83
2022/05/28 04:13:45;;;;;;;0.30;0.30;;;10.60;99.90;;;;;;5098784;28;20435;-84
2022/05/28 04:16:12;;;;;;;0.33;0.30;;;10.60;99.90;;;;;;5101513;28;20452;-83
2022/05/28 04:18:40;;;;;;;0.33;0.33;;;10.60;99.90;;;;;;5107373;28;20452;-83
2022/05/28 04:21:07;;;;;;;0.43;0.40;;;10.60;99.90;;;;;;5108243;28;20938;-84
2022/05/28 04:23:34;;;;;;;2.03;0.70;;;10.60;99.90;;;;;;5105221;28;20468;-84
2022/05/28 04:26:01;;;;;;;0.30;0.30;;;10.60;99.90;;;;;;5095705;28;21047;-84
2022/05/28 04:28:28;;;;;;;0.40;0.40;;;10.70;99.90;;;;;;5095386;28;20488;-84
2022/05/28 04:30:57;;;;;;;0.40;0.30;;;10.70;99.90;;;;;;5095732;28;20452;-84
2022/05/28 04:33:24;;;;;;;2.40;0.40;;;10.70;99.90;;;;;;5095690;28;20510;-84
2022/05/28 04:35:51;;;;;;;1.07;0.57;;;10.80;99.90;;;;;;5095668;28;20935;-83
2022/05/28 04:38:17;;;;;;;0.40;0.30;;;10.80;99.90;;;;;;5095298;28;20448;-84
2022/05/28 04:40:44;;;;;;;0.40;0.37;;;10.90;99.90;;;;;;5095262;28;20484;-84
2022/05/28 04:43:11;;;;;;;0.30;0.20;;;10.90;99.90;;;;;;5095272;28;20479;-84
2022/05/28 04:45:38;;;;;;;0.30;0.30;;;11.00;99.90;;;;;;5095303;28;20958;-84
2022/05/28 04:48:06;;;;;;;0.77;0.73;;;11.00;99.90;;;;;;5095076;28;20961;-84
2022/05/28 04:50:33;;;;;;;0.70;0.53;;;10.90;99.90;;;;;;5095191;28;20487;-83
2022/05/28 04:53:00;;;;;;;0.40;0.30;;;10.90;99.90;;;;;;5095079;28;20468;-83
2022/05/28 04:55:27;;;;;;;0.50;0.40;;;10.90;99.90;;;;;;5095200;28;20440;-83
2022/05/28 04:57:54;;;;;;;0.30;0.30;;;10.90;99.90;;;;;;5094734;28;20961;-83
2022/05/28 05:00:23;;;;;;;1.07;0.40;;;10.90;99.90;;;;;;5094750;28;20943;-83
2022/05/28 05:02:50;;;;;;;0.43;0.40;;;11.00;99.90;;;;;;5095022;28;20472;-83
2022/05/28 05:05:18;;;;;;;0.40;0.30;;;11.00;99.90;;;;;;5094835;28;20451;-83
2022/05/28 05:07:45;;;;;;;1.83;0.40;;;11.10;99.90;;;;;;5094944;28;20432;-83
2022/05/28 05:10:12;;;;;;;0.50;0.50;;;11.10;99.90;;;;;;5094860;28;20480;-83
2022/05/28 05:12:39;;;;;;;1.00;0.40;;;11.20;99.90;;;;;;5094690;28;20834;-83
2022/05/28 05:15:07;;;;;;;0.70;0.50;;;11.20;99.90;;;;;;5094799;28;20455;-83
2022/05/28 05:17:34;;;;;;;0.97;0.50;;;11.20;99.90;;;;;;5094409;28;20938;-83
2022/05/28 05:20:01;;;;;;;0.40;0.30;;;11.30;99.90;;;;;;5094765;28;20459;-83
2022/05/28 05:22:29;;;;;;;0.30;0.30;;;11.30;99.90;;;;;;5094856;28;20467;-83
2022/05/28 05:24:56;;;;;;;0.40;0.40;;;11.40;99.90;;;;;;5094625;28;20452;-83
2022/05/28 05:27:23;;;;;;;0.60;0.50;;;11.50;99.90;;;;;;5094561;28;20451;-83
2022/05/28 05:29:50;;;;;;;0.50;0.50;;;11.50;99.90;;;;;;5094116;28;21009;-83
2022/05/28 05:32:17;;;;;;;0.97;0.30;;;11.60;99.90;;;;;;5094184;28;21017;-84
2022/05/28 05:34:45;;;;;;;0.40;0.30;;;11.70;99.90;;;;;;5094454;28;20463;-82
2022/05/28 05:37:13;;;;;;;0.30;0.30;;;11.80;99.90;;;;;;5094328;28;20452;-83
2022/05/28 05:39:41;;;;;;;0.50;0.40;;;11.80;99.90;;;;;;5094476;28;20535;-83
2022/05/28 05:42:08;;;;;;;0.40;0.30;;;11.90;99.90;;;;;;5093858;28;20479;-83
2022/05/28 05:44:35;;;;;;;0.63;0.63;;;12.00;99.90;;;;;;5094334;28;20463;-83
2022/05/28 05:47:02;;;;;;;0.47;0.47;;;12.10;99.90;;;;;;5094376;28;20455;-83
2022/05/28 05:49:29;;;;;;;0.50;0.40;;;12.20;99.90;;;;;;5093941;28;20490;-83
2022/05/28 05:51:56;;;;;;;0.40;0.30;;;12.30;99.90;;;;;;5094172;28;20845;-83
2022/05/28 05:54:25;;;;;;;0.40;0.40;;;12.30;99.90;;;;;;5094411;28;20475;-83
2022/05/28 05:56:54;;;;;;;0.30;0.30;;;12.50;99.90;;;;;;5094101;28;20456;-83
2022/05/28 05:59:21;;;;;;;0.40;0.33;;;12.60;99.90;;;;;;5093789;28;20440;-84
2022/05/28 06:01:47;;;;;;;0.37;0.30;;;12.70;99.90;;;;;;5093995;28;20833;-84
2022/05/28 06:04:15;;;;;;;1.33;0.50;;;12.80;99.90;;;;;;5094017;28;20455;-83
2022/05/28 06:06:42;;;;;;;0.30;0.30;;;12.90;99.90;;;;;;5093978;28;20456;-83
2022/05/28 06:09:09;;;;;;;1.23;0.90;;;12.70;99.90;;;;;;5093372;28;20486;-83
2022/05/28 06:11:37;;;;;;;0.50;0.40;;;12.90;99.90;;;;;;5093759;28;20448;-83
2022/05/28 06:14:05;;;;;;;0.37;0.30;;;13.10;99.90;;;;;;5093636;28;20447;-83
2022/05/28 06:16:33;;;;;;;0.40;0.33;;;13.50;99.90;;;;;;5093454;28;20452;-83
2022/05/28 06:19:01;;;;;;;0.40;0.33;;;13.70;99.90;;;;;;5093794;28;20433;-91
2022/05/28 06:21:28;;;;;;;0.60;0.30;;;14.00;99.90;;;;;;5095916;28;20444;-86
2022/05/28 06:23:55;;;;;;;0.30;0.30;;;14.20;99.90;;;;;;5095264;28;20803;-86
2022/05/28 06:26:22;;;;;;;0.40;0.33;;;14.40;99.90;;;;;;5096031;28;20463;-87
2022/05/28 06:28:49;;;;;;;0.37;0.30;;;14.50;99.90;;;;;;5095948;28;20433;-87
2022/05/28 06:31:17;;;;;;;0.30;0.20;;;14.60;99.90;;;;;;5095151;28;20432;-86
2022/05/28 06:33:44;;;;;;;0.30;0.20;;;14.70;99.90;;;;;;5096817;28;20792;-87
2022/05/28 06:36:12;;;;;;;0.70;0.43;;;14.90;99.90;;;;;;5095724;28;20467;-87
2022/05/28 06:38:40;;;;;;;0.70;0.37;;;15.20;99.90;;;;;;5096980;28;20456;-87
2022/05/28 06:41:07;;;;;;;1.30;0.40;;;15.40;99.90;;;;;;5097313;28;20490;-87
2022/05/28 06:43:34;;;;;;;0.40;0.33;;;15.70;99.90;;;;;;5097867;28;20475;-88
2022/05/28 06:46:02;;;;;;;3.90;0.50;;;15.90;99.90;;;;;;5097484;28;20444;-87
2022/05/28 06:48:30;;;;;;;0.40;0.33;;;16.20;99.90;;;;;;5097658;28;20455;-88
2022/05/28 06:51:03;;;;;;;0.77;0.50;;;16.40;99.90;;;;;;5101669;28;20483;-86
2022/05/28 06:53:31;;;;;;;0.50;0.50;;;16.60;99.90;;;;;;5103493;28;20467;-87
2022/05/28 06:55:58;;;;;;;2.73;0.40;;;16.70;99.90;;;;;;5117081;28;20446;-88
2022/05/28 06:58:25;;;;;;;0.40;0.30;;;16.80;99.90;;;;;;5117054;28;20448;-87
2022/05/28 07:00:52;;;;;;;0.40;0.30;;;17.00;99.90;;;;;;5112779;28;20447;-86
2022/05/28 07:03:21;;;;;;;1.23;0.50;;;17.20;99.90;;;;;;5108782;28;20988;-88
2022/05/28 07:05:49;;;;;;;0.40;0.40;;;17.10;99.90;;;;;;5098988;28;20954;-88
2022/05/28 07:08:16;;;;;;;0.30;0.30;;;17.10;99.90;;;;;;5097533;28;20447;-89
2022/05/28 07:10:45;;;;;;;7.80;0.50;;;17.20;99.90;;;;;;5097428;28;20471;-87
2022/05/28 07:13:12;;;;;;;0.40;0.37;;;17.20;99.90;;;;;;5097406;28;20475;-89
2022/05/28 07:15:39;;;;;;;0.50;0.40;;;17.30;99.90;;;;;;5097460;28;20447;-88
2022/05/28 07:18:07;;;;;;;0.30;0.30;;;17.60;99.90;;;;;;5096514;28;20457;-89
2022/05/28 07:20:34;;;;;;;0.50;0.40;;;17.70;99.90;;;;;;5096861;28;20435;-89
2022/05/28 07:23:11;;;;;;;0.30;0.30;;;17.90;99.90;;;;;;5100813;28;20467;-89
2022/05/28 07:25:37;;;;;;;0.40;0.30;;;17.90;99.90;;;;;;5101895;28;20889;-88
2022/05/28 07:28:24;;;;;;;0.40;0.40;;;18.10;99.90;;;;;;5102817;28;20550;-88
2022/05/28 07:30:51;;;;;;;0.40;0.33;;;18.20;99.90;;;;;;5101838;28;20821;-89
2022/05/28 07:33:18;;;;;;;0.43;0.37;;;18.70;99.90;;;;;;5102017;28;20474;-88
2022/05/28 07:35:45;;;;;;;0.70;0.50;;;19.10;99.70;;;;;;5101081;28;20190;-89
2022/05/28 07:38:14;;;;;;;0.60;0.40;;;19.80;93.60;;;;;;5101355;28;20194;-89
2022/05/28 07:40:41;;;;;;;0.40;0.30;;;20.30;92.90;;;;;;5101094;28;20229;-89
2022/05/28 07:43:08;;;;;;;1.13;0.40;;;20.60;92.50;;;;;;5101928;28;20225;-90
2022/05/28 07:45:39;;;;;;;0.93;0.30;;;21.20;91.40;;;;;;5100413;28;20203;-89
2022/05/28 07:48:06;;;;;;;0.40;0.40;;;21.40;90.10;;;;;;5101145;28;20228;-89
2022/05/28 07:50:33;;;;;;;0.40;0.40;;;21.80;88.20;;;;;;5101436;28;20222;-88
2022/05/28 07:53:00;;;;;;;0.45;0.32;;;22.00;86.70;;;;;;5100560;28;20233;-90
2022/05/28 07:55:29;;;;;;;0.88;0.40;;;22.60;83.00;;;;;;5100866;28;20664;-89
2022/05/28 07:57:56;;;;;;;0.52;0.52;;;22.80;81.50;;;;;;5100146;28;20569;-90
2022/05/28 08:00:24;;;;;;;0.35;0.35;;;22.80;81.10;;;;;;5101112;28;20205;-90
2022/05/28 08:02:50;;;;;;;1.88;0.50;;;22.60;77.10;;;;;;5100220;28;20236;-89
2022/05/28 08:05:17;;;;;;;0.30;0.30;;;22.70;76.40;;;;;;5100862;28;20680;-90
2022/05/28 08:07:44;;;;;;;0.30;0.30;;;22.30;75.40;;;;;;5100638;28;20563;-89
2022/05/28 08:10:11;;;;;;;0.38;0.30;;;22.20;74.60;;;;;;5100488;28;20228;-90
2022/05/28 08:12:39;;;;;;;0.40;0.40;;;22.20;70.80;;;;;;5100455;28;20222;-89
2022/05/28 08:15:07;;;;;;;0.40;0.40;;;22.40;72.60;;;;;;5099604;28;20206;-90
2022/05/28 08:17:34;;;;;;;0.30;0.30;;;22.40;70.70;;;;;;5099739;28;20206;-89
2022/05/28 08:20:01;;;;;;;0.45;0.40;;;22.20;68.70;;;;;;5098476;28;20199;-89
2022/05/28 08:25:12;;;;;;;1.02;0.35;;;21.80;68.90;;;;;;5098017;28;20189;-82
2022/05/28 08:27:41;;;;;;;0.50;0.30;;;21.80;68.50;;;;;;5097583;28;20201;-91
2022/05/28 08:30:08;;;;;;;0.30;0.30;;;21.80;66.70;;;;;;5099531;28;20278;-91
2022/05/28 08:32:35;;;;;;;1.02;0.30;;;21.80;67.60;;;;;;5097468;28;20734;-91
2022/05/28 08:35:02;;;;;;;0.73;0.35;;;21.90;67.10;;;;;;5097911;28;20190;-87
2022/05/28 08:37:29;;;;;;;1.08;0.40;;;22.00;68.00;;;;;;5096084;28;20193;-90
2022/05/28 08:39:55;;;;;;;0.52;0.40;;;22.10;66.10;;;;;;5095633;28;20223;-83
2022/05/28 08:42:26;;;;;;;0.40;0.40;;;22.10;65.40;;;;;;5095236;28;20613;-86
2022/05/28 08:44:56;;;;;;;0.40;0.32;;;22.20;65.70;;;;;;5095528;28;20660;-85
2022/05/28 08:47:27;;;;;;;0.47;0.40;;;22.00;66.20;;;;;;5095657;28;20586;-87
2022/05/28 08:49:56;;;;;;;2.72;0.38;;;22.00;65.30;;;;;;5095954;28;20201;-82
2022/05/28 08:52:29;;;;;;;0.80;0.40;;;21.90;64.60;;;;;;5095523;28;20278;-84
2022/05/28 08:55:00;;;;;;;0.40;0.30;;;22.00;65.20;;;;;;5095347;28;20549;-84
2022/05/28 08:57:35;;;;;;;0.30;0.30;;;22.10;65.70;;;;;;5095215;28;20213;-83
2022/05/28 09:00:09;;;;;;;0.40;0.40;;;22.00;62.80;;;;;;5095488;28;20182;-83
2022/05/28 09:02:39;;;;;;;0.30;0.22;;;22.10;61.60;;;;;;5094705;28;20218;-83
2022/05/28 09:05:13;;;;;;;0.30;0.30;;;22.20;62.00;;;;;;5094963;28;20676;-80
2022/05/28 09:07:41;;;;;;;0.68;0.30;;;22.50;61.80;;;;;;5095091;28;20185;-78
2022/05/28 09:10:11;;;;;;;0.47;0.30;;;22.70;62.10;;;;;;5094889;28;20225;-78
2022/05/28 09:12:42;;;;;;;0.63;0.30;;;22.50;60.90;;;;;;5094880;28;20598;-82
2022/05/28 09:15:11;;;;;;;0.30;0.30;;;22.10;64.20;;;;;;5094782;28;20189;-81
2022/05/28 09:17:41;;;;;;;0.40;0.30;;;21.90;67.00;;;;;;5094781;28;20209;-82
2022/05/28 09:20:12;;;;;;;0.50;0.35;;;21.60;66.50;;;;;;5094894;28;20193;-83
2022/05/28 09:22:39;;;;;;;0.40;0.30;;;21.50;64.50;;;;;;5094717;28;20583;-80
2022/05/28 09:25:08;;;;;;;0.30;0.30;;;21.50;62.70;;;;;;5094665;28;20198;-83
2022/05/28 09:27:40;;;;;;;0.60;0.40;;;21.30;64.80;;;;;;5095051;28;20205;-81
2022/05/28 09:30:26;;;;;;;0.40;0.30;;;21.00;64.90;;;;;;5094783;28;20455;-82
2022/05/28 09:33:04;;;;;;;0.67;0.47;;;20.80;62.60;;;;;;5094464;28;20552;-83
2022/05/28 09:35:46;;;;;;;1.43;0.30;;;20.50;64.60;;;;;;5094356;28;20448;-84
2022/05/28 09:38:21;;;;;;;0.30;0.30;;;20.20;63.20;;;;;;5094532;28;20427;-84
2022/05/28 09:40:50;;;;;;;2.40;0.40;;;20.20;65.70;;;;;;5095072;28;20474;-87
2022/05/28 09:43:47;;;;;;;1.27;0.30;;;20.20;65.60;;;;;;5094453;28;20517;-87
2022/05/28 09:46:22;;;;;;;0.50;0.30;;;20.00;65.50;;;;;;5094830;28;20923;-87
2022/05/28 09:48:58;;;;;;;0.30;0.27;;;19.90;68.10;;;;;;5095968;28;20447;-87
2022/05/28 09:51:28;;;;;;;3.70;0.30;;;19.80;67.50;;;;;;5094952;28;20831;-87
2022/05/28 09:54:18;;;;;;;0.40;0.30;;;19.60;66.10;;;;;;5095150;28;20443;-87
2022/05/28 09:56:51;;;;;;;0.30;0.30;;;19.40;68.00;;;;;;5095351;28;20451;-87
2022/05/28 09:59:32;;;;;;;0.37;0.30;;;19.30;68.20;;;;;;5095586;28;20428;-87
2022/05/28 10:02:07;;;;;;;1.10;0.70;;;19.30;71.20;;;;;;5095118;28;20823;-87
2022/05/28 10:04:43;;;;;;;0.40;0.30;;;19.10;71.50;;;;;;5095024;28;20435;-87
2022/05/28 10:07:10;;;;;;;0.37;0.30;;;19.40;69.00;;;;;;5095001;28;20426;-87
2022/05/28 10:09:47;;;;;;;0.30;0.30;;;19.30;67.80;;;;;;5095178;28;20440;-87
2022/05/28 10:12:17;;;;;;;0.60;0.30;;;19.40;68.90;;;;;;5094918;28;20478;-86
2022/05/28 10:14:43;;;;;;;0.40;0.40;;;19.30;68.30;;;;;;5094918;28;20448;-87
2022/05/28 10:17:24;;;;;;;0.30;0.30;;;19.40;70.00;;;;;;5094858;28;20434;-87
2022/05/28 10:19:54;;;;;;;0.70;0.70;;;19.30;69.70;;;;;;5095544;28;20442;-88
2022/05/28 10:22:23;;;;;;;0.50;0.40;;;19.30;69.30;;;;;;5097494;28;20459;-87
2022/05/28 10:24:51;;;;;;;0.40;0.30;;;19.30;70.90;;;;;;5098795;28;20439;-87
2022/05/28 10:27:30;;;;;;;0.40;0.37;;;19.10;66.30;;;;;;5113819;28;20494;-87
2022/05/28 10:29:59;;;;;;;0.40;0.30;;;19.00;68.00;;;;;;5118940;28;20425;-85
2022/05/28 10:32:35;;;;;;;1.43;0.70;;;19.00;68.50;;;;;;5116115;28;20994;-84
2022/05/28 10:35:08;;;;;;;0.40;0.40;;;19.00;67.80;;;;;;5104640;28;20802;-85
2022/05/28 10:37:35;;;;;;;0.40;0.30;;;19.10;67.10;;;;;;5097857;28;20926;-85
2022/05/28 10:40:08;;;;;;;0.40;0.40;;;18.80;68.10;;;;;;5094249;28;20447;-85
2022/05/28 10:42:35;;;;;;;0.37;0.33;;;18.60;69.40;;;;;;5093990;28;20475;-85
2022/05/28 10:45:02;;;;;;;0.33;0.30;;;18.60;70.70;;;;;;5094293;28;20448;-86
2022/05/28 10:48:06;;;;;;;0.30;0.30;;;18.60;70.90;;;;;;5094224;28;20454;-86
2022/05/28 10:50:43;;;;;;;0.40;0.30;;;18.80;70.20;;;;;;5093470;28;20487;-85
2022/05/28 10:53:17;;;;;;;0.40;0.40;;;19.10;68.00;;;;;;5093495;28;20818;-85
2022/05/28 10:55:58;;;;;;;0.70;0.40;;;19.10;66.90;;;;;;5095593;28;20801;-85
2022/05/28 10:58:35;;;;;;;2.70;0.33;;;19.20;67.00;;;;;;5097712;28;20458;-85
2022/05/28 11:01:04;;;;;;;0.30;0.30;;;19.40;65.60;;;;;;5097648;28;20427;-86
2022/05/28 11:04:09;;;;;;;0.80;0.40;;;19.50;65.80;;;;;;5098281;28;20824;-87
2022/05/28 11:06:57;;;;;;;0.40;0.30;;;19.30;66.50;;;;;;5098398;28;20442;-87
2022/05/28 11:09:33;;;;;;;0.70;0.60;;;18.90;68.80;;;;;;5097879;28;20948;-87
2022/05/28 11:12:10;;;;;;;0.30;0.30;;;18.70;67.20;;;;;;5098153;28;20490;-87
2022/05/28 11:15:01;;;;;;;4.00;0.60;;;18.40;69.60;;;;;;5098348;28;20436;-88
2022/05/28 11:17:44;;;;;;;0.40;0.30;;;18.20;71.40;;;;;;5098184;28;20432;-87
2022/05/28 11:20:21;;;;;;;0.40;0.30;;;18.00;72.40;;;;;;5098010;28;20404;-86
2022/05/28 11:23:21;;;;;;;0.40;0.30;;;17.80;71.10;;;;;;5097592;28;20997;-87
2022/05/28 11:26:03;;;;;;;0.53;0.37;;;17.70;72.50;;;;;;5050555;28;20962;-87
2022/05/28 11:29:04;;;;;;;0.53;0.40;;;17.90;73.20;;;;;;5099378;28;20434;-87
2022/05/28 11:31:36;;;;;;;0.40;0.30;;;18.00;71.90;;;;;;5098368;28;20471;-87
2022/05/28 11:34:10;;;;;;;0.50;0.40;;;18.20;72.80;;;;;;5097969;28;20436;-88
2022/05/28 11:36:42;;;;;;;0.40;0.30;;;18.40;69.80;;;;;;5098400;28;20796;-87
2022/05/28 11:39:16;;;;;;;0.40;0.40;;;18.60;67.80;;;;;;5099095;28;20792;-87
2022/05/28 11:41:50;;;;;;;0.40;0.30;;;18.70;67.80;;;;;;5097514;28;20497;-84
2022/05/28 11:44:24;;;;;;;0.40;0.30;;;18.70;66.10;;;;;;5096653;28;20938;-81
2022/05/28 11:46:57;;;;;;;0.40;0.40;;;18.70;65.10;;;;;;5096617;28;20443;-86
2022/05/28 11:52:30;;;;;;;0.50;0.30;;;18.70;66.10;;;;;;5070933;28;20919;-87
2022/05/28 11:55:02;;;;;;;0.50;0.40;;;18.80;66.40;;;;;;5098161;28;20551;-89
2022/05/28 11:57:33;;;;;;;0.90;0.50;;;18.70;66.10;;;;;;5099176;28;20777;-89
2022/05/28 12:00:05;;;;;;;0.47;0.43;;;18.60;66.90;;;;;;5098335;28;20515;-89
2022/05/28 12:02:42;;;;;;;0.30;0.20;;;18.60;67.50;;;;;;5098131;28;20467;-88
2022/05/28 12:05:17;;;;;;;0.40;0.30;;;18.60;70.70;;;;;;5099350;28;20435;-90
2022/05/28 12:07:47;;;;;;;3.10;0.47;;;18.80;66.30;;;;;;5097781;28;20519;-90
2022/05/28 12:10:38;;;;;;;1.13;0.40;;;19.00;62.50;;;;;;5099099;28;20444;-89
2022/05/28 12:13:06;;;;;;;0.40;0.40;;;19.00;61.90;;;;;;5098832;28;20458;-90
2022/05/28 12:15:35;;;;;;;0.30;0.30;;;18.90;61.60;;;;;;5098961;28;20431;-88
2022/05/28 12:18:06;;;;;;;3.33;0.50;;;18.70;64.80;;;;;;5097179;28;20932;-87
2022/05/28 12:20:36;;;;;;;0.30;0.30;;;18.60;64.20;;;;;;5098291;28;20523;-89
2022/05/28 12:23:06;;;;;;;0.30;0.30;;;18.40;61.70;;;;;;5098160;28;20468;-88
2022/05/28 12:25:36;;;;;;;0.30;0.30;;;18.30;64.50;;;;;;5097987;28;20474;-88
2022/05/28 12:28:11;;;;;;;0.43;0.43;;;18.30;62.70;;;;;;5098088;28;20447;-88
2022/05/28 12:30:49;;;;;;;0.40;0.30;;;18.30;63.30;;;;;;5097211;28;20463;-88
2022/05/28 12:33:23;;;;;;;0.40;0.40;;;18.20;60.90;;;;;;5096835;28;20657;-89
2022/05/28 12:35:55;;;;;;;0.30;0.30;;;18.20;62.00;;;;;;5096719;28;20891;-89
2022/05/28 12:38:44;;;;;;;0.40;0.30;;;18.20;64.70;;;;;;5097040;28;20425;-87
2022/05/28 12:41:19;;;;;;;0.50;0.30;;;18.30;66.30;;;;;;5096820;28;20552;-88
2022/05/28 12:43:54;;;;;;;0.43;0.43;;;18.20;65.90;;;;;;5096672;28;20439;-88
2022/05/28 12:46:37;;;;;;;2.97;1.27;;;18.20;66.40;;;;;;5096910;28;20428;-88
2022/05/28 12:49:07;;;;;;;2.50;0.40;;;18.30;68.70;;;;;;5097080;28;20440;-88
2022/05/28 12:51:45;;;;;;;0.40;0.30;;;18.30;66.30;;;;;;5096498;28;20480;-88
2022/05/28 12:54:23;;;;;;;0.50;0.40;;;18.40;63.00;;;;;;5096478;28;20409;-88
2022/05/28 12:56:50;;;;;;;0.67;0.47;;;18.30;66.10;;;;;;5097675;28;20428;-87
2022/05/28 12:59:31;;;;;;;0.40;0.40;;;18.30;67.20;;;;;;5098179;28;20468;-88
2022/05/28 13:02:00;;;;;;;0.40;0.30;;;18.10;65.80;;;;;;5098133;28;20463;-89
2022/05/28 13:04:31;;;;;;;0.80;0.40;;;17.90;66.90;;;;;;5098047;28;20452;-88
2022/05/28 13:07:01;;;;;;;1.10;0.40;;;17.90;68.20;;;;;;5098642;28;20437;-88
2022/05/28 13:09:31;;;;;;;0.30;0.30;;;17.90;68.80;;;;;;5098140;28;20451;-88